Time;durP1;ratioP1;P1;durP2;ratioP2;P2;SDS_P1;SDS_P2;PMS_P1;PMS_P2;Temp;Humidity;BMP_temperature;BMP_pressure;BME280_temperature;BME280_humidity;BME280_pressure;Samples;Min_cycle;Max_cycle;Signal;HPM_P1;HPM_P2
2022/05/04 00:02:18;;;;;;;4.20;3.37;;;11.30;31.30;;;;;;5054556;28;20416;-70
2022/05/04 00:04:43;;;;;;;4.50;4.20;;;11.30;31.70;;;;;;5054369;28;20201;-70
2022/05/04 00:07:09;;;;;;;3.80;3.50;;;11.30;31.30;;;;;;5054310;28;20186;-70
2022/05/04 00:09:34;;;;;;;3.33;3.03;;;11.20;31.20;;;;;;5052997;28;20218;-69
2022/05/04 00:12:00;;;;;;;3.93;3.53;;;11.00;31.80;;;;;;5055062;28;20180;-69
2022/05/04 00:14:26;;;;;;;4.37;4.07;;;10.90;31.70;;;;;;5054412;28;20304;-69
2022/05/04 00:16:52;;;;;;;3.87;3.47;;;10.90;32.20;;;;;;5054159;28;20267;-69
2022/05/04 00:19:18;;;;;;;5.80;3.80;;;10.80;32.70;;;;;;5054238;28;20188;-69
2022/05/04 00:21:44;;;;;;;3.63;3.33;;;10.80;33.00;;;;;;5054627;28;20428;-69
2022/05/04 00:24:09;;;;;;;4.00;3.60;;;10.90;32.80;;;;;;5054423;28;20238;-70
2022/05/04 00:26:35;;;;;;;6.00;4.50;;;11.00;32.30;;;;;;5053325;28;20515;-69
2022/05/04 00:29:01;;;;;;;2.97;2.77;;;11.00;31.90;;;;;;5054631;28;20233;-69
2022/05/04 00:31:26;;;;;;;3.90;3.57;;;11.00;31.80;;;;;;5054683;28;20177;-69
2022/05/04 00:33:52;;;;;;;3.80;3.50;;;10.90;32.50;;;;;;5054161;28;20174;-69
2022/05/04 00:36:17;;;;;;;4.23;3.83;;;10.90;31.70;;;;;;5053611;28;20614;-69
2022/05/04 00:38:43;;;;;;;10.30;4.37;;;10.80;32.90;;;;;;5054386;28;20204;-70
2022/05/04 00:41:09;;;;;;;3.80;3.50;;;10.80;33.30;;;;;;5052962;28;20272;-69
2022/05/04 00:43:34;;;;;;;4.30;3.77;;;10.80;32.90;;;;;;5051668;28;20175;-69
2022/05/04 00:46:00;;;;;;;3.43;3.10;;;10.70;33.10;;;;;;5051429;28;20233;-69
2022/05/04 00:48:25;;;;;;;3.77;3.23;;;10.70;33.40;;;;;;5051608;28;20626;-69
2022/05/04 00:50:52;;;;;;;3.80;3.50;;;10.80;33.20;;;;;;5051546;28;20177;-69
2022/05/04 00:53:19;;;;;;;4.23;3.00;;;10.60;34.30;;;;;;5051748;28;20583;-70
2022/05/04 00:55:46;;;;;;;3.07;2.87;;;10.50;34.60;;;;;;5051478;28;20907;-68
2022/05/04 01:01:00;;;;;;;3.73;3.30;;;10.40;34.50;;;;;;5051976;28;20464;-69
2022/05/04 01:03:26;;;;;;;3.07;2.80;;;10.40;34.50;;;;;;5051640;28;20830;-69
2022/05/04 01:05:51;;;;;;;3.03;2.83;;;10.50;34.30;;;;;;5051189;28;20462;-69
2022/05/04 01:08:17;;;;;;;3.07;2.83;;;10.60;34.90;;;;;;5051322;28;20683;-69
2022/05/04 01:10:43;;;;;;;6.23;4.20;;;10.60;34.40;;;;;;5051531;28;20187;-69
2022/05/04 01:13:09;;;;;;;4.43;4.00;;;10.60;35.00;;;;;;5051301;28;20369;-69
2022/05/04 01:15:35;;;;;;;3.57;2.97;;;10.60;34.50;;;;;;5051481;28;20226;-69
2022/05/04 01:18:01;;;;;;;3.87;3.50;;;10.60;33.90;;;;;;5051286;28;20409;-69
2022/05/04 01:20:27;;;;;;;3.40;3.10;;;10.50;34.90;;;;;;5051178;28;20192;-69
2022/05/04 01:22:53;;;;;;;4.13;3.37;;;10.40;35.40;;;;;;5051403;28;20419;-69
2022/05/04 01:25:20;;;;;;;3.90;3.50;;;10.30;35.40;;;;;;5051233;28;20221;-69
2022/05/04 01:27:45;;;;;;;3.53;3.07;;;10.30;36.50;;;;;;5050976;28;20465;-69
2022/05/04 01:30:12;;;;;;;4.50;3.33;;;10.20;36.20;;;;;;5048163;28;20872;-69
2022/05/04 01:32:38;;;;;;;9.70;2.87;;;10.20;35.70;;;;;;5031755;28;20188;-69
2022/05/04 01:35:04;;;;;;;4.70;2.50;;;10.10;36.20;;;;;;5033594;28;20462;-69
2022/05/04 01:37:30;;;;;;;3.20;2.67;;;10.10;36.70;;;;;;5037967;28;20913;-69
2022/05/04 01:39:55;;;;;;;3.97;3.57;;;10.10;36.80;;;;;;5031365;28;20786;-69
2022/05/04 01:42:24;;;;;;;4.90;4.07;;;10.30;37.30;;;;;;5049652;28;20201;-69
2022/05/04 01:44:49;;;;;;;3.33;3.03;;;10.20;36.90;;;;;;5051216;28;20217;-69
2022/05/04 01:47:15;;;;;;;3.47;3.17;;;10.20;36.90;;;;;;5050843;28;20419;-69
2022/05/04 01:49:40;;;;;;;3.30;3.00;;;10.10;37.00;;;;;;5040066;28;20635;-69
2022/05/04 01:52:06;;;;;;;4.80;3.07;;;10.10;37.00;;;;;;5050986;28;20261;-69
2022/05/04 01:54:32;;;;;;;3.07;2.87;;;10.20;36.80;;;;;;5052289;28;20199;-69
2022/05/04 01:56:57;;;;;;;4.83;3.20;;;10.20;36.90;;;;;;5054826;28;20545;-69
2022/05/04 01:59:23;;;;;;;3.90;2.70;;;10.20;37.20;;;;;;5054721;28;20655;-69
2022/05/04 02:01:49;;;;;;;3.73;3.43;;;10.30;37.00;;;;;;5054599;28;20225;-69
2022/05/04 02:04:15;;;;;;;4.00;3.30;;;10.30;36.50;;;;;;5054480;28;20209;-69
2022/05/04 02:06:41;;;;;;;3.20;2.90;;;10.30;36.50;;;;;;5053422;28;20643;-69
2022/05/04 02:09:06;;;;;;;3.70;3.40;;;10.30;36.50;;;;;;5054180;28;20523;-69
2022/05/04 02:11:33;;;;;;;3.17;2.87;;;10.30;36.40;;;;;;5054140;28;20557;-69
2022/05/04 02:13:59;;;;;;;3.60;3.30;;;10.30;36.70;;;;;;5054304;28;20174;-69
2022/05/04 02:16:25;;;;;;;4.03;2.47;;;10.20;36.90;;;;;;5054482;28;20721;-69
2022/05/04 02:18:51;;;;;;;3.50;3.20;;;10.20;37.00;;;;;;5054200;28;20471;-69
2022/05/04 02:21:17;;;;;;;7.50;4.17;;;10.30;36.40;;;;;;5054216;28;20181;-69
2022/05/04 02:23:43;;;;;;;3.90;3.60;;;10.30;36.60;;;;;;5054430;28;20454;-69
2022/05/04 02:26:08;;;;;;;5.07;3.30;;;10.40;36.50;;;;;;5042015;28;20262;-69
2022/05/04 02:28:34;;;;;;;3.77;3.07;;;10.40;36.50;;;;;;5034331;28;20959;-69
2022/05/04 02:30:59;;;;;;;4.40;4.00;;;10.40;36.50;;;;;;5052008;28;20210;-69
2022/05/04 02:33:25;;;;;;;3.60;3.30;;;10.40;36.50;;;;;;5054318;28;20662;-69
2022/05/04 02:38:35;;;;;;;3.70;3.40;;;10.50;36.60;;;;;;5053899;28;20183;-69
2022/05/04 02:41:01;;;;;;;4.10;3.60;;;10.50;35.80;;;;;;5053804;28;20933;-69
2022/05/04 02:43:28;;;;;;;5.67;4.10;;;10.50;35.60;;;;;;5053958;28;20183;-69
2022/05/04 02:45:54;;;;;;;3.40;3.10;;;10.50;36.30;;;;;;5053765;28;20197;-69
2022/05/04 02:48:19;;;;;;;3.83;3.43;;;10.60;36.30;;;;;;5053646;28;20803;-69
2022/05/04 02:50:45;;;;;;;3.60;3.20;;;10.60;35.20;;;;;;5053566;28;20437;-69
2022/05/04 02:53:11;;;;;;;4.67;3.60;;;10.60;35.10;;;;;;5053791;28;20256;-69
2022/05/04 02:55:36;;;;;;;4.27;3.27;;;10.70;35.30;;;;;;5053655;28;20197;-69
2022/05/04 02:58:02;;;;;;;4.10;3.80;;;10.70;34.90;;;;;;5053343;28;20192;-69
2022/05/04 03:00:28;;;;;;;5.50;3.37;;;10.80;34.60;;;;;;5053246;28;20188;-69
2022/05/04 03:02:54;;;;;;;4.20;3.50;;;10.90;34.40;;;;;;5053696;28;20502;-68
2022/05/04 03:05:20;;;;;;;3.63;3.43;;;10.90;34.20;;;;;;5052732;28;20227;-69
2022/05/04 03:07:46;;;;;;;4.90;3.70;;;10.90;34.40;;;;;;5052621;28;20822;-69
2022/05/04 03:10:13;;;;;;;7.60;4.80;;;10.80;34.60;;;;;;5053139;28;20423;-69
2022/05/04 03:12:40;;;;;;;7.30;3.83;;;10.80;34.50;;;;;;5053398;28;20177;-69
2022/05/04 03:15:06;;;;;;;3.97;3.67;;;10.80;34.50;;;;;;5053039;28;20467;-69
2022/05/04 03:17:32;;;;;;;3.37;3.07;;;10.90;34.20;;;;;;5053075;28;20448;-69
2022/05/04 03:19:58;;;;;;;5.50;4.50;;;10.90;34.20;;;;;;5053053;28;20909;-69
2022/05/04 03:22:25;;;;;;;3.67;3.27;;;10.90;34.40;;;;;;5053188;28;20417;-69
2022/05/04 03:24:50;;;;;;;4.40;4.00;;;10.90;34.00;;;;;;5053228;28;20695;-69
2022/05/04 03:27:16;;;;;;;3.77;3.27;;;11.00;33.90;;;;;;5052964;28;20427;-70
2022/05/04 03:29:42;;;;;;;3.07;2.87;;;10.90;34.00;;;;;;5052876;28;20209;-69
2022/05/04 03:32:08;;;;;;;4.20;3.90;;;10.90;34.00;;;;;;5053017;28;20216;-69
2022/05/04 03:34:34;;;;;;;6.07;4.43;;;10.90;34.00;;;;;;5052573;28;20582;-69
2022/05/04 03:37:00;;;;;;;8.00;4.17;;;10.90;34.30;;;;;;5053265;28;20410;-69
2022/05/04 03:39:26;;;;;;;4.07;3.67;;;10.90;34.20;;;;;;5052403;28;20428;-69
2022/05/04 03:41:52;;;;;;;3.73;3.43;;;11.00;34.20;;;;;;5053256;28;20231;-69
2022/05/04 03:44:18;;;;;;;3.70;3.17;;;10.90;33.60;;;;;;5052840;28;20448;-69
2022/05/04 03:46:48;;;;;;;5.37;3.63;;;10.90;33.90;;;;;;5053292;28;20185;-69
2022/05/04 03:49:15;;;;;;;3.87;3.30;;;10.90;34.40;;;;;;5052097;28;20216;-69
2022/05/04 03:51:41;;;;;;;4.80;3.37;;;10.90;34.10;;;;;;5052664;28;20431;-68
2022/05/04 03:54:08;;;;;;;3.20;2.90;;;10.90;34.50;;;;;;5051330;28;20514;-70
2022/05/04 03:56:34;;;;;;;4.73;4.07;;;10.80;34.80;;;;;;5052940;28;20537;-69
2022/05/04 03:59:00;;;;;;;5.07;4.47;;;10.80;35.20;;;;;;5052356;28;20959;-70
2022/05/04 04:01:26;;;;;;;5.90;4.40;;;10.80;35.50;;;;;;5052830;28;20454;-70
2022/05/04 04:03:51;;;;;;;6.20;4.27;;;10.80;35.50;;;;;;5052655;28;20418;-70
2022/05/04 04:06:17;;;;;;;10.27;3.30;;;10.80;35.40;;;;;;5051535;28;20237;-70
2022/05/04 04:08:43;;;;;;;2.93;2.63;;;10.80;35.40;;;;;;5052229;28;20699;-69
2022/05/04 04:11:08;;;;;;;4.17;3.07;;;10.80;35.40;;;;;;5052795;28;20172;-70
2022/05/04 04:13:34;;;;;;;4.60;2.67;;;10.80;35.40;;;;;;5052623;28;20170;-69
2022/05/04 04:16:00;;;;;;;3.40;3.10;;;10.70;35.80;;;;;;5075961;22;20256;-69
2022/05/04 04:18:26;;;;;;;3.90;3.60;;;10.70;35.60;;;;;;5051279;28;20179;-69
2022/05/04 04:23:38;;;;;;;5.90;3.67;;;10.80;35.20;;;;;;5052206;28;20446;-70
2022/05/04 04:26:04;;;;;;;4.70;4.20;;;10.80;34.90;;;;;;5051738;28;20528;-69
2022/05/04 04:28:31;;;;;;;3.53;3.23;;;10.80;35.30;;;;;;5050166;28;20496;-69
2022/05/04 04:30:56;;;;;;;4.30;4.00;;;10.80;35.10;;;;;;5050715;28;20417;-69
2022/05/04 04:33:26;;;;;;;4.17;3.80;;;10.90;35.20;;;;;;5051852;28;20435;-69
2022/05/04 04:35:52;;;;;;;4.43;4.03;;;10.90;34.90;;;;;;5051749;28;20284;-70
2022/05/04 04:38:18;;;;;;;5.57;4.23;;;10.90;34.50;;;;;;5051659;28;20876;-70
2022/05/04 04:40:43;;;;;;;4.00;3.37;;;10.90;34.10;;;;;;5051619;28;20463;-70
2022/05/04 04:43:10;;;;;;;4.90;3.30;;;11.00;34.50;;;;;;5051670;28;20254;-70
2022/05/04 04:45:36;;;;;;;4.90;4.40;;;11.00;33.90;;;;;;5051721;28;20217;-70
2022/05/04 04:48:01;;;;;;;4.50;4.10;;;11.10;34.20;;;;;;5051535;28;20463;-71
2022/05/04 04:50:27;;;;;;;7.17;4.03;;;10.90;33.70;;;;;;5051545;28;20934;-70
2022/05/04 04:52:52;;;;;;;6.23;5.00;;;11.00;34.00;;;;;;5051845;28;20559;-70
2022/05/04 04:55:18;;;;;;;7.03;5.03;;;11.10;33.60;;;;;;5051644;28;20221;-70
2022/05/04 04:57:43;;;;;;;5.27;3.73;;;11.20;33.00;;;;;;5051040;28;20261;-71
2022/05/04 05:00:10;;;;;;;4.80;4.33;;;11.30;32.40;;;;;;5051707;28;20276;-70
2022/05/04 05:02:36;;;;;;;6.60;5.00;;;11.40;32.60;;;;;;5051689;28;20229;-70
2022/05/04 05:05:04;;;;;;;5.77;5.17;;;11.50;32.30;;;;;;5051810;28;20440;-71
2022/05/04 05:07:30;;;;;;;5.43;4.43;;;11.70;31.70;;;;;;5051020;28;20491;-71
2022/05/04 05:09:56;;;;;;;5.07;4.67;;;11.80;31.30;;;;;;5052107;28;20798;-71
2022/05/04 05:12:24;;;;;;;5.97;4.97;;;12.00;30.00;;;;;;5051794;28;20249;-70
2022/05/04 05:17:35;;;;;;;4.43;4.10;;;12.30;30.30;;;;;;5051693;28;20491;-70
2022/05/04 05:20:04;;;;;;;5.93;4.67;;;12.70;29.80;;;;;;5051389;28;20828;-69
2022/05/04 05:22:31;;;;;;;9.67;5.00;;;13.50;29.20;;;;;;5051606;28;20447;-69
2022/05/04 05:24:56;;;;;;;5.47;5.17;;;14.50;26.50;;;;;;5051519;28;20432;-71
2022/05/04 05:27:22;;;;;;;9.47;8.87;;;15.50;24.70;;;;;;5051105;28;20474;-67
2022/05/04 05:29:49;;;;;;;9.37;8.80;;;16.00;20.20;;;;;;5053387;28;20476;-69
2022/05/04 05:32:14;;;;;;;9.53;8.80;;;16.10;19.50;;;;;;5055389;28;20996;-69
2022/05/04 05:34:40;;;;;;;8.90;8.40;;;15.80;20.10;;;;;;5055412;28;20779;-69
2022/05/04 05:37:06;;;;;;;9.50;8.77;;;15.70;20.10;;;;;;5055124;28;20213;-68
2022/05/04 05:39:31;;;;;;;8.73;8.17;;;15.60;20.60;;;;;;5054921;28;20713;-68
2022/05/04 05:41:57;;;;;;;8.37;7.87;;;15.50;21.20;;;;;;5055080;28;20521;-70
2022/05/04 05:44:22;;;;;;;8.43;7.93;;;15.00;21.80;;;;;;5055103;28;20186;-68
2022/05/04 05:46:48;;;;;;;8.17;7.77;;;14.60;22.40;;;;;;5055188;28;20536;-68
2022/05/04 05:49:13;;;;;;;7.00;6.60;;;14.60;22.80;;;;;;5054435;28;20217;-67
2022/05/04 05:51:39;;;;;;;8.60;8.10;;;14.60;22.60;;;;;;5055096;28;20181;-67
2022/05/04 05:54:04;;;;;;;8.60;8.00;;;14.60;22.60;;;;;;5055109;28;20258;-67
2022/05/04 05:56:30;;;;;;;10.47;8.77;;;14.70;22.60;;;;;;5054559;28;20210;-67
2022/05/04 05:58:55;;;;;;;9.97;8.27;;;14.90;22.60;;;;;;5053787;28;20550;-69
2022/05/04 06:01:21;;;;;;;8.40;7.90;;;15.00;22.60;;;;;;5054736;28;20249;-68
2022/05/04 06:03:46;;;;;;;9.87;9.17;;;15.20;21.90;;;;;;5055013;28;20186;-68
2022/05/04 06:06:12;;;;;;;10.10;9.50;;;15.30;21.80;;;;;;5053480;28;20670;-68
2022/05/04 06:08:38;;;;;;;9.80;9.07;;;15.00;21.30;;;;;;5053898;28;20206;-68
2022/05/04 06:11:05;;;;;;;9.73;9.00;;;15.30;21.30;;;;;;5054450;28;20183;-66
2022/05/04 06:13:30;;;;;;;9.50;8.90;;;15.40;21.30;;;;;;5054916;28;20274;-68
2022/05/04 06:15:56;;;;;;;9.67;9.20;;;15.50;20.70;;;;;;5053388;28;20941;-73
2022/05/04 06:18:21;;;;;;;10.60;10.00;;;16.10;20.80;;;;;;5054405;28;20194;-70
2022/05/04 06:20:47;;;;;;;11.83;11.23;;;16.60;19.70;;;;;;5054662;28;20185;-70
2022/05/04 06:23:12;;;;;;;12.20;11.40;;;17.10;18.90;;;;;;5054547;28;20581;-70
2022/05/04 06:25:38;;;;;;;11.60;10.90;;;17.30;18.40;;;;;;5054308;28;20225;-69
2022/05/04 06:28:04;;;;;;;14.63;11.93;;;17.50;17.20;;;;;;5053949;28;20218;-71
2022/05/04 06:35:58;;;;;;;13.30;12.10;;;17.40;17.50;;;;;;5054223;28;20559;-69
2022/05/04 06:38:24;;;;;;;13.47;12.40;;;17.60;17.70;;;;;;5053588;28;20528;-69
2022/05/04 06:40:49;;;;;;;11.53;10.73;;;17.80;17.90;;;;;;5052803;28;20175;-70
2022/05/04 06:43:15;;;;;;;11.10;10.30;;;17.70;17.30;;;;;;5053979;28;20650;-71
2022/05/04 06:45:41;;;;;;;17.20;12.20;;;16.00;20.00;;;;;;5053854;28;20695;-71
2022/05/04 06:48:07;;;;;;;12.03;11.03;;;16.10;19.80;;;;;;5053630;28;20222;-70
2022/05/04 06:50:33;;;;;;;11.23;10.40;;;15.50;21.10;;;;;;5054330;28;20441;-71
2022/05/04 06:52:58;;;;;;;11.87;10.97;;;15.40;21.80;;;;;;5053617;28;20491;-70
2022/05/04 06:55:24;;;;;;;9.80;9.17;;;15.50;22.10;;;;;;5053826;28;20426;-71
2022/05/04 06:57:50;;;;;;;11.20;10.37;;;15.80;21.30;;;;;;5054081;28;20678;-70
2022/05/04 07:00:16;;;;;;;11.37;10.60;;;15.90;21.00;;;;;;5053539;28;20269;-70
2022/05/04 07:02:41;;;;;;;10.93;10.20;;;15.90;21.00;;;;;;5053744;28;20693;-70
2022/05/04 07:05:07;;;;;;;10.10;9.50;;;16.00;20.90;;;;;;5052202;28;20981;-70
2022/05/04 07:07:33;;;;;;;10.00;9.30;;;16.00;20.40;;;;;;5053470;28;20171;-70
2022/05/04 07:09:59;;;;;;;10.83;10.10;;;16.10;20.00;;;;;;5053516;28;20174;-70
2022/05/04 07:12:25;;;;;;;11.40;10.50;;;16.30;20.00;;;;;;5052265;28;20961;-70
2022/05/04 07:14:56;;;;;;;10.57;9.87;;;16.60;20.00;;;;;;5053089;28;20453;-71
2022/05/04 07:17:25;;;;;;;11.13;10.33;;;16.90;19.50;;;;;;5053300;28;20417;-70
2022/05/04 07:19:50;;;;;;;11.03;10.43;;;16.90;17.40;;;;;;5048525;28;20527;-70
2022/05/04 07:22:16;;;;;;;10.70;10.00;;;16.70;19.40;;;;;;5053136;28;20528;-70
2022/05/04 07:24:42;;;;;;;12.67;12.00;;;17.60;19.30;;;;;;5052474;28;20609;-70
2022/05/04 07:27:08;;;;;;;10.83;10.23;;;18.50;16.80;;;;;;5053254;28;20185;-70
2022/05/04 07:29:34;;;;;;;12.63;11.77;;;19.10;15.90;;;;;;5053797;28;20552;-70
2022/05/04 07:32:00;;;;;;;12.90;12.20;;;19.90;16.40;;;;;;5041731;28;20179;-70
2022/05/04 07:34:26;;;;;;;12.00;11.40;;;21.20;13.90;;;;;;5032263;28;20429;-70
2022/05/04 07:36:51;;;;;;;13.93;13.23;;;22.70;11.50;;;;;;5032940;28;20418;-70
2022/05/04 07:44:46;;;;;;;14.10;13.40;;;25.70;6.00;;;;;;5052785;28;20447;-70
2022/05/04 07:47:11;;;;;;;14.03;13.00;;;25.50;4.60;;;;;;5053274;28;20940;-70
2022/05/04 07:49:37;;;;;;;14.17;13.47;;;25.50;6.00;;;;;;5048924;28;20496;-70
2022/05/04 07:52:03;;;;;;;14.97;14.27;;;26.10;5.00;;;;;;5051794;28;20186;-70
2022/05/04 07:54:29;;;;;;;14.97;14.37;;;26.80;2.60;;;;;;5049354;28;20390;-70
2022/05/04 07:56:55;;;;;;;15.07;14.17;;;27.30;2.90;;;;;;5031232;28;20516;-70
2022/05/04 07:59:20;;;;;;;13.50;12.90;;;27.90;2.90;;;;;;5044635;28;20559;-70
2022/05/04 08:04:30;;;;;;;15.00;14.20;;;28.20;1.90;;;;;;5049505;28;20212;-70
2022/05/04 08:06:56;;;;;;;14.80;14.10;;;28.30;1.00;;;;;;5042348;28;20437;-68
2022/05/04 08:09:22;;;;;;;14.40;13.43;;;28.50;1.00;;;;;;5046015;28;20541;-68
2022/05/04 08:11:47;;;;;;;13.17;12.67;;;28.50;1.30;;;;;;5046333;28;20265;-67
2022/05/04 08:14:13;;;;;;;14.83;14.03;;;28.30;1.50;;;;;;5046402;28;20617;-71
2022/05/04 08:16:40;;;;;;;14.43;13.73;;;28.40;1.10;;;;;;5048770;28;20182;-71
2022/05/04 08:19:06;;;;;;;14.87;14.10;;;28.50;1.00;;;;;;5047347;28;20780;-71
2022/05/04 08:21:33;;;;;;;14.50;13.83;;;28.40;1.10;;;;;;5046956;28;20421;-71
2022/05/04 08:23:59;;;;;;;14.77;14.07;;;28.50;1.20;;;;;;5048146;28;20504;-71
2022/05/04 08:26:25;;;;;;;14.70;14.10;;;28.70;1.30;;;;;;5047948;28;21119;-71
2022/05/04 08:28:51;;;;;;;15.03;14.23;;;28.80;1.00;;;;;;5046989;28;20551;-71
2022/05/04 08:31:18;;;;;;;14.37;13.67;;;26.90;1.90;;;;;;5047504;28;20187;-71
2022/05/04 08:33:44;;;;;;;14.50;13.70;;;27.20;2.20;;;;;;5047500;28;20713;-71
2022/05/04 08:36:09;;;;;;;14.87;14.17;;;27.10;1.10;;;;;;5047491;28;20532;-71
2022/05/04 08:38:35;;;;;;;14.20;13.60;;;26.30;1.60;;;;;;5047953;28;20221;-69
2022/05/04 08:41:02;;;;;;;16.03;15.30;;;23.90;4.60;;;;;;5046004;28;20190;-71
2022/05/04 08:43:29;;;;;;;14.53;13.90;;;23.60;4.90;;;;;;5047278;28;20190;-70
2022/05/04 08:45:55;;;;;;;16.57;15.57;;;23.40;5.30;;;;;;5048582;28;20448;-70
2022/05/04 08:48:22;;;;;;;14.80;14.10;;;23.60;5.40;;;;;;5048070;28;20531;-70
2022/05/04 08:50:50;;;;;;;15.30;14.40;;;22.30;7.30;;;;;;5047590;28;20504;-71
2022/05/04 08:53:16;;;;;;;15.53;14.43;;;22.10;8.70;;;;;;5047235;28;20794;-71
2022/05/04 08:55:43;;;;;;;15.00;14.40;;;22.40;9.20;;;;;;5048577;28;20444;-71
2022/05/04 08:58:09;;;;;;;14.80;14.00;;;22.30;8.90;;;;;;5047664;28;20448;-70
2022/05/04 09:00:35;;;;;;;16.10;15.30;;;21.50;8.60;;;;;;5047852;28;20491;-70
2022/05/04 09:03:01;;;;;;;15.13;14.23;;;19.90;11.50;;;;;;5047360;28;20401;-68
2022/05/04 09:05:29;;;;;;;14.40;13.70;;;20.00;11.60;;;;;;5051600;28;20440;-69
2022/05/04 09:07:57;;;;;;;14.40;13.60;;;20.10;11.40;;;;;;5051345;28;20194;-69
2022/05/04 09:10:24;;;;;;;13.63;13.00;;;19.70;12.00;;;;;;5052593;28;20845;-69
2022/05/04 09:12:52;;;;;;;14.43;13.73;;;19.80;11.90;;;;;;5051265;28;20840;-70
2022/05/04 09:15:22;;;;;;;13.10;12.50;;;19.10;12.40;;;;;;5051506;28;20468;-69
2022/05/04 09:17:58;;;;;;;13.60;13.00;;;19.50;13.40;;;;;;5051461;28;20455;-71
2022/05/04 09:20:47;;;;;;;13.20;12.60;;;19.20;13.40;;;;;;5051853;28;20503;-70
2022/05/04 09:23:28;;;;;;;13.40;12.67;;;19.70;12.70;;;;;;5050937;28;20451;-68
2022/05/04 09:25:58;;;;;;;13.33;12.73;;;19.50;11.50;;;;;;5052609;28;20429;-67
2022/05/04 09:28:26;;;;;;;13.80;13.10;;;19.80;11.90;;;;;;5050678;28;20514;-69
2022/05/04 09:30:54;;;;;;;14.07;13.47;;;19.40;11.70;;;;;;5051202;28;20420;-70
2022/05/04 09:33:31;;;;;;;13.23;12.53;;;19.30;11.60;;;;;;5051997;28;20782;-69
2022/05/04 09:35:59;;;;;;;12.80;12.20;;;19.20;12.80;;;;;;5051696;28;20878;-69
2022/05/04 09:47:17;;;;;;;12.47;11.97;;;19.30;10.90;;;;;;5032180;28;20436;-70
2022/05/04 09:49:44;;;;;;;12.40;11.80;;;18.80;9.40;;;;;;5032200;28;20473;-69
2022/05/04 09:52:09;;;;;;;13.33;12.27;;;18.70;9.80;;;;;;5032751;28;20807;-69
2022/05/04 09:54:35;;;;;;;13.20;12.60;;;18.60;9.50;;;;;;5034738;28;20433;-70
2022/05/04 09:57:03;;;;;;;12.90;12.17;;;18.70;10.60;;;;;;5034896;28;20186;-70
2022/05/04 09:59:36;;;;;;;13.07;12.47;;;18.70;10.30;;;;;;5033386;28;20183;-69
2022/05/04 10:02:04;;;;;;;13.20;12.60;;;18.50;10.10;;;;;;5048490;28;20498;-70
2022/05/04 10:04:34;;;;;;;13.60;13.00;;;18.50;10.50;;;;;;5055007;28;20990;-68
2022/05/04 10:07:01;;;;;;;12.40;11.90;;;18.20;10.00;;;;;;5054488;28;20432;-69
2022/05/04 10:09:27;;;;;;;12.20;11.70;;;18.10;10.70;;;;;;5054318;28;20530;-69
2022/05/04 10:11:57;;;;;;;12.73;11.93;;;18.30;10.90;;;;;;5052959;28;20878;-69
2022/05/04 10:14:24;;;;;;;14.10;13.40;;;18.40;10.50;;;;;;5054121;28;20412;-68
2022/05/04 10:16:58;;;;;;;12.63;12.13;;;18.50;10.70;;;;;;5060173;22;20539;-68
2022/05/04 10:19:44;;;;;;;13.40;12.80;;;18.40;10.90;;;;;;5033300;28;20427;-69
2022/05/04 10:22:14;;;;;;;12.50;11.90;;;18.50;11.00;;;;;;5034794;28;20472;-70
2022/05/04 10:24:42;;;;;;;12.47;11.97;;;18.60;11.10;;;;;;5032861;28;20422;-70
2022/05/04 10:27:21;;;;;;;12.77;12.07;;;19.00;11.30;;;;;;5033791;28;20426;-70
2022/05/04 10:32:47;;;;;;;13.33;12.70;;;18.90;10.10;;;;;;5034380;28;20444;-70
2022/05/04 10:35:38;;;;;;;12.80;12.27;;;19.30;9.80;;;;;;5033837;28;20483;-67
2022/05/04 10:38:15;;;;;;;13.20;12.60;;;19.60;9.60;;;;;;5032485;28;20409;-69
2022/05/04 10:41:05;;;;;;;12.83;12.23;;;19.80;9.50;;;;;;5033915;28;20472;-70
2022/05/04 10:43:40;;;;;;;12.00;11.50;;;20.00;9.20;;;;;;5033990;28;20410;-70
2022/05/04 10:46:09;;;;;;;12.20;11.70;;;20.00;9.10;;;;;;5033453;28;20976;-71
2022/05/04 10:48:35;;;;;;;13.17;12.50;;;19.80;9.30;;;;;;5033576;28;20453;-72
2022/05/04 10:51:12;;;;;;;13.20;12.70;;;19.60;9.00;;;;;;5033900;28;20821;-71
2022/05/04 10:53:40;;;;;;;12.80;12.13;;;20.00;9.40;;;;;;5033446;28;20425;-68
2022/05/04 10:56:12;;;;;;;13.30;12.70;;;19.50;9.50;;;;;;5032591;28;20962;-69
2022/05/04 10:58:53;;;;;;;12.90;12.40;;;19.80;9.50;;;;;;5033410;28;20418;-69
2022/05/04 11:01:25;;;;;;;13.67;12.90;;;19.10;10.70;;;;;;5033798;28;20456;-66
2022/05/04 11:04:10;;;;;;;13.03;12.33;;;19.40;10.60;;;;;;5032037;28;20893;-70
2022/05/04 11:06:46;;;;;;;14.03;13.03;;;19.60;10.40;;;;;;5032301;28;20546;-70
2022/05/04 11:09:13;;;;;;;13.47;12.73;;;19.70;9.80;;;;;;5030476;28;20488;-69
2022/05/04 11:11:43;;;;;;;13.33;12.67;;;19.90;9.70;;;;;;5032429;28;20901;-69
2022/05/04 11:14:10;;;;;;;12.70;12.20;;;19.70;9.40;;;;;;5024076;28;20426;-68
2022/05/04 11:16:36;;;;;;;13.43;12.73;;;19.80;9.50;;;;;;5013736;28;20955;-68
2022/05/04 11:19:04;;;;;;;13.03;12.53;;;19.60;9.40;;;;;;5013267;28;20415;-68
2022/05/04 11:21:31;;;;;;;13.10;12.60;;;20.00;9.90;;;;;;5015276;28;20422;-68
2022/05/04 11:23:59;;;;;;;13.57;12.87;;;19.80;9.30;;;;;;5017818;28;20498;-68
2022/05/04 11:26:44;;;;;;;12.70;12.13;;;19.40;9.20;;;;;;5027983;28;20865;-67
2022/05/04 11:29:15;;;;;;;12.73;12.23;;;20.00;8.30;;;;;;5013641;28;20451;-70
2022/05/04 11:31:55;;;;;;;13.20;12.60;;;19.80;8.20;;;;;;5025292;28;20413;-69
2022/05/04 11:34:31;;;;;;;13.50;12.80;;;19.50;8.50;;;;;;5031706;28;20416;-70
2022/05/04 11:37:01;;;;;;;12.80;12.20;;;19.70;8.80;;;;;;5032902;28;20534;-69
2022/05/04 11:39:28;;;;;;;12.60;12.10;;;20.10;9.30;;;;;;5032769;28;20409;-70
2022/05/04 11:41:59;;;;;;;13.80;13.20;;;20.30;9.20;;;;;;5033066;28;20445;-72
2022/05/04 11:44:26;;;;;;;15.03;14.00;;;20.30;9.70;;;;;;5013044;28;20458;-72
2022/05/04 11:46:54;;;;;;;13.30;12.60;;;20.30;11.20;;;;;;5017740;28;20852;-72
2022/05/04 11:49:22;;;;;;;13.77;13.13;;;20.40;11.60;;;;;;5024687;28;20457;-72
2022/05/04 11:51:48;;;;;;;15.00;14.17;;;20.70;10.90;;;;;;5018291;28;20857;-72
2022/05/04 11:54:13;;;;;;;14.10;13.30;;;20.40;10.90;;;;;;5011738;28;20423;-72
2022/05/04 11:56:39;;;;;;;14.00;13.30;;;20.50;11.90;;;;;;5012897;28;20905;-73
2022/05/04 11:59:07;;;;;;;13.57;12.80;;;21.10;11.70;;;;;;5012757;28;20445;-73
2022/05/04 12:01:33;;;;;;;13.70;12.87;;;21.10;10.80;;;;;;5013253;28;20180;-73
2022/05/04 12:04:01;;;;;;;13.90;13.27;;;20.80;10.90;;;;;;5012865;28;20473;-73
2022/05/04 12:06:27;;;;;;;12.97;12.23;;;20.50;10.70;;;;;;5012646;28;20431;-73
2022/05/04 12:08:54;;;;;;;15.07;14.20;;;20.80;11.10;;;;;;5012689;28;20458;-73
2022/05/04 12:11:22;;;;;;;13.40;12.80;;;20.90;11.10;;;;;;5011422;28;20915;-73
2022/05/04 12:13:48;;;;;;;13.77;13.17;;;20.80;11.60;;;;;;5012897;28;20450;-73
2022/05/04 12:16:14;;;;;;;12.17;11.67;;;20.80;11.40;;;;;;5011227;28;20872;-73
2022/05/04 12:18:40;;;;;;;13.00;12.40;;;20.80;11.70;;;;;;5012493;28;20609;-72
2022/05/04 12:21:13;;;;;;;12.63;11.93;;;20.50;13.00;;;;;;5012451;28;20418;-72
2022/05/04 12:23:41;;;;;;;17.77;12.97;;;20.40;12.80;;;;;;5012623;28;20695;-72
2022/05/04 12:26:12;;;;;;;15.63;14.33;;;20.10;13.80;;;;;;5012448;28;20443;-72
2022/05/04 12:28:43;;;;;;;16.47;13.00;;;19.50;16.50;;;;;;5012240;28;20470;-71
2022/05/04 12:33:56;;;;;;;11.97;11.00;;;18.60;18.20;;;;;;5012344;28;20413;-72
2022/05/04 12:36:24;;;;;;;10.87;10.17;;;18.10;19.20;;;;;;5012138;28;20434;-71
2022/05/04 12:38:52;;;;;;;9.93;9.33;;;17.60;20.40;;;;;;5008720;28;20513;-72
2022/05/04 12:41:20;;;;;;;9.50;8.90;;;17.30;21.30;;;;;;5026030;28;20497;-71
2022/05/04 12:43:47;;;;;;;9.43;8.73;;;16.90;21.70;;;;;;5027761;28;20418;-71
2022/05/04 12:46:15;;;;;;;8.93;8.23;;;16.50;22.20;;;;;;5027658;28;20437;-72
2022/05/04 12:48:46;;;;;;;7.47;7.07;;;16.20;22.60;;;;;;5012789;28;20470;-72
2022/05/04 12:51:17;;;;;;;7.60;7.00;;;15.90;23.50;;;;;;5024567;28;20422;-71
2022/05/04 12:53:48;;;;;;;8.60;7.90;;;15.60;25.20;;;;;;5026360;28;20433;-72
2022/05/04 12:59:01;;;;;;;7.43;6.73;;;15.30;26.80;;;;;;5027524;28;20933;-72
2022/05/04 13:01:28;;;;;;;24.13;6.73;;;15.20;27.60;;;;;;5027573;28;20925;-74
2022/05/04 13:03:54;;;;;;;6.33;5.83;;;15.10;27.10;;;;;;5028471;28;20911;-72
2022/05/04 13:06:22;;;;;;;6.30;5.70;;;14.80;28.20;;;;;;5027751;28;20582;-72
2022/05/04 13:08:48;;;;;;;6.70;6.07;;;14.80;29.40;;;;;;5027381;28;20227;-72
2022/05/04 13:11:20;;;;;;;6.43;5.83;;;14.80;29.50;;;;;;5028539;28;20451;-74
2022/05/04 13:13:45;;;;;;;6.60;5.50;;;14.90;30.50;;;;;;5028025;28;20467;-73
2022/05/04 13:16:11;;;;;;;7.03;5.93;;;14.90;30.60;;;;;;5026545;28;20870;-73
2022/05/04 13:18:38;;;;;;;6.27;4.60;;;15.00;30.10;;;;;;5027555;28;20388;-73
2022/05/04 13:21:04;;;;;;;7.03;6.10;;;15.00;30.20;;;;;;5028365;28;20460;-73
2022/05/04 13:23:30;;;;;;;4.20;3.90;;;14.70;31.60;;;;;;5022381;28;20540;-73